ATH weather

Eleftherios Venizelos International Airport
Athens, Attica, Greece

Public forecast

Using degrees Celsius for public forecast. Weather courtesy of forecast.io.

Current aviation weather report (METAR) for Eleftherios Venizelos International Airport

Retrieved 2020/02/23 01:20 UTC (12 minutes ago):

LGAV 230120Z 01010G20KT 9999 FEW025 SCT035 BKN070 09/02 Q1025 NOSIG

Aviation forecast (TAF) for Eleftherios Venizelos International Airport

Retrieved 2020-02-23 00:12 UTC (1 hour ago):

TAF TAF LGAV 222300Z 2300/2324 34015KT 9999 FEW018 BKN020 BKN070 TEMPO 2300/2315 01025G35KT PROB40 TEMPO 2300/2306 5000 RA SCT015 BKN020 BKN070